Archival Weather

Joint Base Andrews

Camp Springs, Maryland (KADW)

Report from: Tuesday, February 27, 2024 9:55 PM EST
Current time: Wednesday, May 29, 2024 7:52 PM EDT

Current weather – Weather history – Daily summaries
Weather forecast

Temperature14.4°C (57.9°F)
Dew point11.7°C (53.1°F)
Winds 10 kts (5.1 m/s, 11.5 mph) South (180°)
Visibility10 mi. (16.1 km)
Clouds Ceiling: Overcast 1,400 ft. (427 m)
Altimeter29.82 in.Hg (1010 mB)
Relative humidity84 %
Density altitude218 ft. (67 m)
Sea-level pressure101.0 kPa (1010 mB, 29.84 in.Hg)
Remarks Fully automated report
System requires maintenance
Automated weather observing station with precipitation discriminator
Ceiling
Pressure rising more quickly
Flight conditions Marginal Visual Meteorological Conditions
Raw dataKADW 280255Z AUTO 18010KT 10SM OVC014 14/12 A2982 RMK AO2 CIG 013 RWY19L SLP104 T01440117 53000 $
An error has occurred. This application may no longer respond until reloaded. Reload 🗙